Flight Track Log - Related Links

Times and Time Zones

All times are in EDT time to prevent confusion due to time zone crossing. See the SWA1096 flight status page for this flight to view local times or setup timezone preferences in your user account.

Time Position Orientation Groundspeed Altitude Reporting Facility
EDT Latitude Longitude Course Direction KTS MPH feet Rate Location/Type
Wed 09:11:53 AM 36.0750 -115.1633 272° West 158 182 3,200  Level Los Angeles Center
Wed 09:13:12 AM 36.0772 -115.2636 272° West 242 278 6,600 2,936 Climbing Los Angeles Center
Wed 09:14:14 AM 36.1356 -115.2947 337° Northwest 243 280 10,100 3,171 Climbing Los Angeles Center
Wed 09:15:15 AM 36.1831 -115.2278 49° Northeast 277 319 13,100 2,732 Climbing Los Angeles Center
Wed 09:16:17 AM 36.1975 -115.1081 81° East 355 409 15,700 2,975 Climbing Los Angeles Center
Wed 09:17:16 AM 36.1983 -114.9756 90° East 385 443 19,100 3,300 Climbing Los Angeles Center
Wed 09:18:17 AM 36.1989 -114.8336 90° East 409 471 22,300 2,902 Climbing Los Angeles Center
Wed 09:19:18 AM 36.2683 -114.7183 53° Northeast 440 506 25,000 2,607 Climbing Los Angeles Center
Wed 09:20:19 AM 36.3628 -114.6261 38° Northeast 436 502 27,600 2,754 Climbing Los Angeles Center
Wed 09:21:20 AM 36.4622 -114.5328 37° Northeast 446 513 30,600 2,656 Climbing Los Angeles Center
Wed 09:22:21 AM 36.5797 -114.4256 36° Northeast 439 505 33,000 1,180 Climbing Los Angeles Center
Wed 09:23:22 AM 36.6844 -114.3469 31° Northeast 442 509 33,000  Level Los Angeles Center
Wed 09:24:23 AM 36.7867 -114.2678 32° Northeast 435 501 33,000  Level Los Angeles Center
Wed 09:25:24 AM 36.8919 -114.1864 32° Northeast 443 510 33,000  Level Los Angeles Center
Wed 09:26:25 AM 36.9967 -114.1044 32° Northeast 444 511 33,000  Level Los Angeles Center
Wed 09:27:26 AM 37.1017 -114.0233 32° Northeast 445 512 33,000  Level Los Angeles Center
Wed 09:28:28 AM 37.2083 -113.9389 32° Northeast 443 510 33,000  Level Salt Lake Center
Wed 09:29:29 AM 37.3131 -113.8569 32° Northeast 442 509 33,000  Level Salt Lake Center
Wed 09:30:30 AM 37.4178 -113.7742 32° Northeast 443 510 33,000  Level Salt Lake Center
Wed 09:31:31 AM 37.5206 -113.6906 33° Northeast 440 506 33,000  Level Salt Lake Center
Wed 09:32:32 AM 37.6256 -113.6081 32° Northeast 443 510 33,000  Level Salt Lake Center
Wed 09:33:33 AM 37.7297 -113.5244 32° Northeast 443 510 33,000  Level Salt Lake Center
Wed 09:34:34 AM 37.8344 -113.4400 32° Northeast 443 510 33,000  Level Salt Lake Center
Wed 09:35:35 AM 37.9397 -113.3558 32° Northeast 445 512 33,000  Level Salt Lake Center
Wed 09:36:36 AM 38.0444 -113.2719 32° Northeast 443 510 33,000  Level Salt Lake Center
Wed 09:37:37 AM 38.1706 -113.1692 33° Northeast 447 514 33,000  Level Salt Lake Center
Wed 09:38:38 AM 38.2753 -113.0836 33° Northeast 447 514 33,000  Level Salt Lake Center
Wed 09:39:40 AM 38.3808 -113.0011 31° Northeast 445 512 33,000  Level Salt Lake Center
Wed 09:40:41 AM 38.4908 -112.9417 23° Northeast 434 499 33,000  Level Salt Lake Center
Wed 09:41:42 AM 38.6014 -112.8844 22° Northeast 431 496 33,000 -49 Level Salt Lake Center
Wed 09:42:43 AM 38.7122 -112.8242 23° Northeast 432 497 32,900 -492 Descending Salt Lake Center
Wed 09:43:44 AM 38.8233 -112.7658 22° Northeast 432 497 32,000 -443 Descending Salt Lake Center
Wed 09:44:45 AM 38.9328 -112.7058 23° Northeast 429 494 32,000  Level Salt Lake Center
Wed 09:45:47 AM 39.0442 -112.6456 23° Northeast 434 499 32,000 -244 Level Salt Lake Center
Wed 09:46:48 AM 39.1550 -112.5858 23° Northeast 434 499 31,500 -1,770 Descending Salt Lake Center
Wed 09:47:49 AM 39.2867 -112.5142 23° Northeast 442 509 28,400 -2,361 Descending Salt Lake Center
Wed 09:48:50 AM 39.3986 -112.4511 24° Northeast 441 507 26,700 -1,770 Descending Salt Lake Center
Wed 09:49:51 AM 39.5050 -112.3894 24° Northeast 425 489 24,800 -1,951 Descending Salt Lake Center
Wed 09:50:53 AM 39.6075 -112.3303 24° Northeast 408 470 22,700 -2,049 Descending Salt Lake Center
Wed 09:51:54 AM 39.7050 -112.2733 24° Northeast 391 450 20,600 -2,016 Descending Salt Lake Center
Wed 09:52:55 AM 39.7989 -112.2211 23° Northeast 379 436 18,600 -1,918 Descending Salt Lake Center
Wed 09:53:56 AM 39.8875 -112.1675 25° Northeast 357 411 16,700 -1,770 Descending Salt Lake Center
Wed 09:54:57 AM 39.9767 -112.1158 24° Northeast 352 405 15,000 -1,436 Descending Salt Lake Center
Wed 09:55:53 AM 40.0614 -112.0758 20° North 313 360 13,900 -1,179 Descending Salt Lake Center
Wed 09:56:54 AM 40.1375 -112.0253 27° Northeast 300 345 12,700 -1,377 Descending Salt Lake Center
Wed 09:57:55 AM 40.2106 -111.9808 25° Northeast 288 331 11,100 -1,091 Descending Salt Lake Center
Wed 09:58:55 AM 40.2886 -111.9631 10° North 279 321 10,500 -512 Descending Salt Lake Center
Wed 10:00:04 AM 40.3694 -111.9550 North 274 315 10,000 -353 Descending Salt Lake Center
Wed 10:00:20 AM 40.3919 -111.9619 347° North 272 313 10,000 -787 Level Salt Lake Center
Wed 10:01:05 AM 40.4439 -111.9564 North 269 310 9,200 -923 Descending Salt Lake Center
Wed 10:01:51 AM 40.5053 -111.9686 351° North 264 304 8,600 -689 Descending Salt Lake Center
Wed 10:02:06 AM 40.5175 -111.9653 12° North 265 305 8,500 -468 Descending Salt Lake Center
Wed 10:03:08 AM 40.5833 -111.9731 355° North 241 277 8,000 -780 Descending Salt Lake Center
Wed 10:04:09 AM 40.6439 -111.9794 355° North 221 254 6,900 -1,023 Descending Salt Lake Center
Wed 10:05:17 AM 40.6989 -111.9906 351° North 151 174 5,800 -885 Descending Salt Lake Center
Wed 10:06:11 AM 40.7353 -111.9906 360° North 140 161 5,100 -776 Descending Salt Lake Center
Wed 10:07:13 AM 40.7744 -111.9942 356° North 140 161 4,300 -774 Descending Salt Lake Center
Wed 10:09:00 AM 40.7833 -111.9667 North  Level FlightAware Approximate

Login

Don't have an account? Register now (free) for customized features, flight alerts, and more!